KLNR/LNR METAR and TAF weather

Enter ICAO airport designator
Station Type Date Time Source
KLNR METAR 2020/02/25 11:56 UTC NOAA

KLNR 251156Z AUTO 04014G25KT 10SM CLR 00/M07 A3003 RMK AO2 SLP172 T00001067 10011 21006 51013


Station Type Date Time Source
KLNR Decoded METAR 2020/02/25 11:56 UTC NOAA

LONE ROCK TRI-COUNTY REG, WI, United States (KLNR) 43-13N 090-11W 217M
Feb 25, 2020 - 06:56 AM EST / 2020.02.25 1156 UTC
Wind: from the NE (040 degrees) at 16 MPH (14 KT) gusting to 29 MPH (25 KT):0
Visibility: 10 mile(s):0
Sky conditions: clear
Temperature: 32.0 F (0.0 C)
Windchill: 21 F (-6 C):1
Dew Point: 19.9 F (-6.7 C)
Relative Humidity: 60%
Pressure (altimeter): 30.03 in. Hg (1016 hPa)
Pressure tendency: 0.04 inches (1.3 hPa) higher than three hours ago
ob: KLNR 251156Z AUTO 04014G25KT 10SM CLR 00/M07 A3003 RMK AO2 SLP172 T00001067 10011 21006 51013
cycle: 12

Station Type Date Time Source
KLNR TAF UTC NOAA

Error!

Example: see airport list